sensor_id;sensor_type;location;lat;lon;timestamp;temperature;humidity
70107;DHT22;57473;37.508;15.080;2023-02-03T00:00:06;9.20;88.00
70107;DHT22;57473;37.508;15.080;2023-02-03T00:02:37;9.10;88.00
70107;DHT22;57473;37.508;15.080;2023-02-03T00:05:04;9.10;88.30
70107;DHT22;57473;37.508;15.080;2023-02-03T00:07:32;9.10;88.50
70107;DHT22;57473;37.508;15.080;2023-02-03T00:10:01;9.00;89.00
70107;DHT22;57473;37.508;15.080;2023-02-03T00:12:28;9.00;89.20
70107;DHT22;57473;37.508;15.080;2023-02-03T00:14:56;9.00;89.00
70107;DHT22;57473;37.508;15.080;2023-02-03T00:17:23;9.00;89.10
70107;DHT22;57473;37.508;15.080;2023-02-03T00:19:50;9.00;89.50
70107;DHT22;57473;37.508;15.080;2023-02-03T00:22:17;8.90;89.70
70107;DHT22;57473;37.508;15.080;2023-02-03T00:24:45;9.00;89.30
70107;DHT22;57473;37.508;15.080;2023-02-03T00:27:12;8.90;89.20
70107;DHT22;57473;37.508;15.080;2023-02-03T00:29:40;8.90;89.20
70107;DHT22;57473;37.508;15.080;2023-02-03T00:32:07;8.90;88.40
70107;DHT22;57473;37.508;15.080;2023-02-03T00:34:36;8.80;87.50
70107;DHT22;57473;37.508;15.080;2023-02-03T00:37:03;8.80;86.80
70107;DHT22;57473;37.508;15.080;2023-02-03T00:39:30;8.90;85.60
70107;DHT22;57473;37.508;15.080;2023-02-03T00:41:57;8.80;85.30
70107;DHT22;57473;37.508;15.080;2023-02-03T00:44:25;8.80;85.20
70107;DHT22;57473;37.508;15.080;2023-02-03T00:46:52;8.80;85.20
70107;DHT22;57473;37.508;15.080;2023-02-03T00:49:19;8.80;84.70
70107;DHT22;57473;37.508;15.080;2023-02-03T00:51:46;8.90;83.70
70107;DHT22;57473;37.508;15.080;2023-02-03T00:54:14;9.00;83.10
70107;DHT22;57473;37.508;15.080;2023-02-03T00:56:41;9.00;82.90
70107;DHT22;57473;37.508;15.080;2023-02-03T00:59:09;8.90;83.00
70107;DHT22;57473;37.508;15.080;2023-02-03T01:01:36;8.90;83.30
70107;DHT22;57473;37.508;15.080;2023-02-03T01:04:04;8.80;83.60
70107;DHT22;57473;37.508;15.080;2023-02-03T01:06:32;8.80;84.00
70107;DHT22;57473;37.508;15.080;2023-02-03T01:09:03;8.70;84.50
70107;DHT22;57473;37.508;15.080;2023-02-03T01:11:31;8.70;84.50
70107;DHT22;57473;37.508;15.080;2023-02-03T01:13:59;8.60;85.00
70107;DHT22;57473;37.508;15.080;2023-02-03T01:16:29;8.60;85.00
70107;DHT22;57473;37.508;15.080;2023-02-03T01:18:57;8.60;84.90
70107;DHT22;57473;37.508;15.080;2023-02-03T01:21:25;8.50;85.00
70107;DHT22;57473;37.508;15.080;2023-02-03T01:23:54;8.50;85.00
70107;DHT22;57473;37.508;15.080;2023-02-03T01:26:23;8.50;85.20
70107;DHT22;57473;37.508;15.080;2023-02-03T01:28:55;8.50;85.10
70107;DHT22;57473;37.508;15.080;2023-02-03T01:31:25;8.50;85.20
70107;DHT22;57473;37.508;15.080;2023-02-03T01:33:54;8.40;85.40
70107;DHT22;57473;37.508;15.080;2023-02-03T01:36:24;8.40;85.60
70107;DHT22;57473;37.508;15.080;2023-02-03T01:38:51;8.40;85.60
70107;DHT22;57473;37.508;15.080;2023-02-03T01:41:24;8.30;85.80
70107;DHT22;57473;37.508;15.080;2023-02-03T01:43:53;8.30;86.00
70107;DHT22;57473;37.508;15.080;2023-02-03T01:46:34;8.30;86.10
70107;DHT22;57473;37.508;15.080;2023-02-03T01:49:17;8.30;86.50
70107;DHT22;57473;37.508;15.080;2023-02-03T01:51:46;8.30;86.80
70107;DHT22;57473;37.508;15.080;2023-02-03T01:54:35;8.30;87.00
70107;DHT22;57473;37.508;15.080;2023-02-03T01:57:26;8.30;86.90
70107;DHT22;57473;37.508;15.080;2023-02-03T01:59:57;8.30;86.90
70107;DHT22;57473;37.508;15.080;2023-02-03T02:02:27;8.30;87.30
70107;DHT22;57473;37.508;15.080;2023-02-03T02:05:06;8.20;87.30
70107;DHT22;57473;37.508;15.080;2023-02-03T02:07:36;8.20;87.60
70107;DHT22;57473;37.508;15.080;2023-02-03T02:10:05;8.20;87.60
70107;DHT22;57473;37.508;15.080;2023-02-03T02:12:33;8.20;88.20
70107;DHT22;57473;37.508;15.080;2023-02-03T02:15:01;8.20;88.30
70107;DHT22;57473;37.508;15.080;2023-02-03T02:20:31;8.10;88.50
70107;DHT22;57473;37.508;15.080;2023-02-03T02:31:37;8.20;88.40
70107;DHT22;57473;37.508;15.080;2023-02-03T02:34:23;8.20;88.60
70107;DHT22;57473;37.508;15.080;2023-02-03T02:45:31;8.10;87.90
70107;DHT22;57473;37.508;15.080;2023-02-03T02:48:06;8.00;88.60
70107;DHT22;57473;37.508;15.080;2023-02-03T02:50:40;8.00;89.30
70107;DHT22;57473;37.508;15.080;2023-02-03T02:53:09;8.00;89.30
70107;DHT22;57473;37.508;15.080;2023-02-03T02:55:40;7.90;89.90
70107;DHT22;57473;37.508;15.080;2023-02-03T02:58:12;8.00;89.60
70107;DHT22;57473;37.508;15.080;2023-02-03T03:00:43;8.00;89.40
70107;DHT22;57473;37.508;15.080;2023-02-03T03:03:15;8.00;89.40
70107;DHT22;57473;37.508;15.080;2023-02-03T03:05:56;7.90;89.40
70107;DHT22;57473;37.508;15.080;2023-02-03T03:08:51;7.90;89.30
70107;DHT22;57473;37.508;15.080;2023-02-03T03:11:20;7.90;89.50
70107;DHT22;57473;37.508;15.080;2023-02-03T03:13:50;7.80;89.90
70107;DHT22;57473;37.508;15.080;2023-02-03T03:16:23;7.80;89.90
70107;DHT22;57473;37.508;15.080;2023-02-03T03:19:03;7.80;89.70
70107;DHT22;57473;37.508;15.080;2023-02-03T03:21:41;7.80;89.30
70107;DHT22;57473;37.508;15.080;2023-02-03T03:24:13;7.80;89.30
70107;DHT22;57473;37.508;15.080;2023-02-03T03:26:53;7.70;89.50
70107;DHT22;57473;37.508;15.080;2023-02-03T03:29:29;7.70;89.70
70107;DHT22;57473;37.508;15.080;2023-02-03T03:31:57;7.60;89.90
70107;DHT22;57473;37.508;15.080;2023-02-03T03:34:25;7.60;89.70
70107;DHT22;57473;37.508;15.080;2023-02-03T03:40:21;7.60;89.20
70107;DHT22;57473;37.508;15.080;2023-02-03T03:42:59;7.60;89.10
70107;DHT22;57473;37.508;15.080;2023-02-03T03:48:11;7.70;88.00
70107;DHT22;57473;37.508;15.080;2023-02-03T03:50:44;7.70;87.80
70107;DHT22;57473;37.508;15.080;2023-02-03T03:53:15;7.60;88.40
70107;DHT22;57473;37.508;15.080;2023-02-03T03:55:47;7.60;88.30
70107;DHT22;57473;37.508;15.080;2023-02-03T03:58:45;7.50;88.50
70107;DHT22;57473;37.508;15.080;2023-02-03T04:01:14;7.50;88.90
70107;DHT22;57473;37.508;15.080;2023-02-03T04:03:54;7.50;89.00
70107;DHT22;57473;37.508;15.080;2023-02-03T04:06:22;7.50;89.20
70107;DHT22;57473;37.508;15.080;2023-02-03T04:08:50;7.40;88.50
70107;DHT22;57473;37.508;15.080;2023-02-03T04:11:17;7.40;88.50
70107;DHT22;57473;37.508;15.080;2023-02-03T04:14:03;7.40;88.20
70107;DHT22;57473;37.508;15.080;2023-02-03T04:16:30;7.50;86.80
70107;DHT22;57473;37.508;15.080;2023-02-03T04:18:58;7.60;86.70
70107;DHT22;57473;37.508;15.080;2023-02-03T04:21:25;7.50;87.00
70107;DHT22;57473;37.508;15.080;2023-02-03T04:23:52;7.60;86.80
70107;DHT22;57473;37.508;15.080;2023-02-03T04:26:22;7.60;86.40
70107;DHT22;57473;37.508;15.080;2023-02-03T04:28:50;7.60;85.90
70107;DHT22;57473;37.508;15.080;2023-02-03T04:31:17;7.60;86.00
70107;DHT22;57473;37.508;15.080;2023-02-03T04:33:44;7.50;86.10
70107;DHT22;57473;37.508;15.080;2023-02-03T04:36:12;7.50;86.70
70107;DHT22;57473;37.508;15.080;2023-02-03T04:38:39;7.50;87.00
70107;DHT22;57473;37.508;15.080;2023-02-03T04:41:08;7.50;86.70
70107;DHT22;57473;37.508;15.080;2023-02-03T04:43:36;7.40;87.00
70107;DHT22;57473;37.508;15.080;2023-02-03T04:46:03;7.40;87.30
70107;DHT22;57473;37.508;15.080;2023-02-03T04:48:31;7.40;87.40
70107;DHT22;57473;37.508;15.080;2023-02-03T04:51:02;7.50;87.10
70107;DHT22;57473;37.508;15.080;2023-02-03T04:53:31;7.50;87.20
70107;DHT22;57473;37.508;15.080;2023-02-03T04:55:58;7.40;87.50
70107;DHT22;57473;37.508;15.080;2023-02-03T04:58:25;7.40;87.50
70107;DHT22;57473;37.508;15.080;2023-02-03T05:00:53;7.40;87.50
70107;DHT22;57473;37.508;15.080;2023-02-03T05:03:21;7.40;87.40
70107;DHT22;57473;37.508;15.080;2023-02-03T05:05:52;7.40;87.60
70107;DHT22;57473;37.508;15.080;2023-02-03T05:08:22;7.40;87.60
70107;DHT22;57473;37.508;15.080;2023-02-03T05:10:50;7.40;87.20
70107;DHT22;57473;37.508;15.080;2023-02-03T05:13:17;7.40;87.50
70107;DHT22;57473;37.508;15.080;2023-02-03T05:15:44;7.60;86.60
70107;DHT22;57473;37.508;15.080;2023-02-03T05:18:12;7.80;85.50
70107;DHT22;57473;37.508;15.080;2023-02-03T05:20:39;7.90;84.50
70107;DHT22;57473;37.508;15.080;2023-02-03T05:23:07;7.90;84.00
70107;DHT22;57473;37.508;15.080;2023-02-03T05:25:35;8.00;83.80
70107;DHT22;57473;37.508;15.080;2023-02-03T05:28:02;8.00;83.90
70107;DHT22;57473;37.508;15.080;2023-02-03T05:30:29;7.90;84.40
70107;DHT22;57473;37.508;15.080;2023-02-03T05:32:57;7.90;84.70
70107;DHT22;57473;37.508;15.080;2023-02-03T05:35:25;7.90;85.00
70107;DHT22;57473;37.508;15.080;2023-02-03T05:37:53;7.80;85.50
70107;DHT22;57473;37.508;15.080;2023-02-03T05:40:20;7.80;85.70
70107;DHT22;57473;37.508;15.080;2023-02-03T05:43:06;7.70;86.10
70107;DHT22;57473;37.508;15.080;2023-02-03T05:45:34;7.60;86.70
70107;DHT22;57473;37.508;15.080;2023-02-03T05:48:04;7.50;87.20
70107;DHT22;57473;37.508;15.080;2023-02-03T05:50:34;7.40;87.30
70107;DHT22;57473;37.508;15.080;2023-02-03T05:53:07;7.30;88.40
70107;DHT22;57473;37.508;15.080;2023-02-03T05:55:35;7.40;88.70
70107;DHT22;57473;37.508;15.080;2023-02-03T05:58:04;7.40;88.80
70107;DHT22;57473;37.508;15.080;2023-02-03T06:00:32;7.40;89.20
70107;DHT22;57473;37.508;15.080;2023-02-03T06:03:01;7.40;89.20
70107;DHT22;57473;37.508;15.080;2023-02-03T06:05:31;7.30;89.30
70107;DHT22;57473;37.508;15.080;2023-02-03T06:07:59;7.30;89.40
70107;DHT22;57473;37.508;15.080;2023-02-03T06:10:27;7.30;89.70
70107;DHT22;57473;37.508;15.080;2023-02-03T06:12:55;7.30;90.10
70107;DHT22;57473;37.508;15.080;2023-02-03T06:15:22;7.40;89.60
70107;DHT22;57473;37.508;15.080;2023-02-03T06:17:50;7.50;89.20
70107;DHT22;57473;37.508;15.080;2023-02-03T06:20:18;7.50;89.10
70107;DHT22;57473;37.508;15.080;2023-02-03T06:22:46;7.50;89.10
70107;DHT22;57473;37.508;15.080;2023-02-03T06:25:13;7.50;89.20
70107;DHT22;57473;37.508;15.080;2023-02-03T06:27:41;7.50;89.00
70107;DHT22;57473;37.508;15.080;2023-02-03T06:30:09;7.60;88.20
70107;DHT22;57473;37.508;15.080;2023-02-03T06:32:37;7.60;88.20
70107;DHT22;57473;37.508;15.080;2023-02-03T06:35:05;7.70;88.00
70107;DHT22;57473;37.508;15.080;2023-02-03T06:37:32;7.70;88.10
70107;DHT22;57473;37.508;15.080;2023-02-03T06:40:02;7.70;87.30
70107;DHT22;57473;37.508;15.080;2023-02-03T06:42:30;7.80;87.10
70107;DHT22;57473;37.508;15.080;2023-02-03T06:44:57;7.90;86.80
70107;DHT22;57473;37.508;15.080;2023-02-03T06:47:25;7.90;86.50
70107;DHT22;57473;37.508;15.080;2023-02-03T06:49:52;8.00;86.30
70107;DHT22;57473;37.508;15.080;2023-02-03T06:52:19;8.10;85.30
70107;DHT22;57473;37.508;15.080;2023-02-03T06:54:48;8.20;84.60
70107;DHT22;57473;37.508;15.080;2023-02-03T06:57:15;8.20;84.30
70107;DHT22;57473;37.508;15.080;2023-02-03T06:59:43;8.30;84.00
70107;DHT22;57473;37.508;15.080;2023-02-03T07:02:11;8.40;84.10
70107;DHT22;57473;37.508;15.080;2023-02-03T07:04:38;8.40;83.80
70107;DHT22;57473;37.508;15.080;2023-02-03T07:07:06;8.50;83.30
70107;DHT22;57473;37.508;15.080;2023-02-03T07:09:36;8.70;82.80
70107;DHT22;57473;37.508;15.080;2023-02-03T07:12:05;8.80;82.00
70107;DHT22;57473;37.508;15.080;2023-02-03T07:14:33;9.00;81.30
70107;DHT22;57473;37.508;15.080;2023-02-03T07:17:05;9.10;80.00
70107;DHT22;57473;37.508;15.080;2023-02-03T07:19:33;9.30;78.90
70107;DHT22;57473;37.508;15.080;2023-02-03T07:22:00;9.40;78.10
70107;DHT22;57473;37.508;15.080;2023-02-03T07:24:27;9.50;77.40
70107;DHT22;57473;37.508;15.080;2023-02-03T07:26:55;9.60;76.80
70107;DHT22;57473;37.508;15.080;2023-02-03T07:29:22;9.80;75.50
70107;DHT22;57473;37.508;15.080;2023-02-03T07:31:49;9.90;74.90
70107;DHT22;57473;37.508;15.080;2023-02-03T07:34:17;10.00;75.00
70107;DHT22;57473;37.508;15.080;2023-02-03T07:36:44;10.10;74.70
70107;DHT22;57473;37.508;15.080;2023-02-03T07:39:12;10.30;73.90
70107;DHT22;57473;37.508;15.080;2023-02-03T07:41:39;10.40;73.50
70107;DHT22;57473;37.508;15.080;2023-02-03T07:44:06;10.60;72.00
70107;DHT22;57473;37.508;15.080;2023-02-03T07:46:35;10.80;71.20
70107;DHT22;57473;37.508;15.080;2023-02-03T07:49:06;11.00;70.80
70107;DHT22;57473;37.508;15.080;2023-02-03T07:51:33;11.10;69.80
70107;DHT22;57473;37.508;15.080;2023-02-03T07:54:00;11.30;68.50
70107;DHT22;57473;37.508;15.080;2023-02-03T07:56:27;11.40;67.50
70107;DHT22;57473;37.508;15.080;2023-02-03T07:58:56;11.60;67.00
70107;DHT22;57473;37.508;15.080;2023-02-03T08:01:24;11.80;66.00
70107;DHT22;57473;37.508;15.080;2023-02-03T08:03:52;11.90;64.80
70107;DHT22;57473;37.508;15.080;2023-02-03T08:06:21;12.10;64.90
70107;DHT22;57473;37.508;15.080;2023-02-03T08:08:49;12.20;63.50
70107;DHT22;57473;37.508;15.080;2023-02-03T08:11:16;12.40;62.70
70107;DHT22;57473;37.508;15.080;2023-02-03T08:13:43;12.50;61.10
70107;DHT22;57473;37.508;15.080;2023-02-03T08:16:10;12.60;61.00
70107;DHT22;57473;37.508;15.080;2023-02-03T08:18:38;12.80;58.80
70107;DHT22;57473;37.508;15.080;2023-02-03T08:21:05;12.90;58.00
70107;DHT22;57473;37.508;15.080;2023-02-03T08:23:33;13.00;61.50
70107;DHT22;57473;37.508;15.080;2023-02-03T08:26:00;12.90;62.90
70107;DHT22;57473;37.508;15.080;2023-02-03T08:28:27;12.90;63.90
70107;DHT22;57473;37.508;15.080;2023-02-03T08:30:54;12.90;64.10
70107;DHT22;57473;37.508;15.080;2023-02-03T08:33:23;13.00;64.60
70107;DHT22;57473;37.508;15.080;2023-02-03T08:35:51;13.00;64.80
70107;DHT22;57473;37.508;15.080;2023-02-03T08:38:18;13.00;65.30
70107;DHT22;57473;37.508;15.080;2023-02-03T08:40:45;13.00;66.10
70107;DHT22;57473;37.508;15.080;2023-02-03T08:43:13;13.00;66.40
70107;DHT22;57473;37.508;15.080;2023-02-03T08:45:40;13.00;66.80
70107;DHT22;57473;37.508;15.080;2023-02-03T08:48:07;13.00;67.10
70107;DHT22;57473;37.508;15.080;2023-02-03T08:50:35;13.10;68.10
70107;DHT22;57473;37.508;15.080;2023-02-03T08:53:02;13.20;68.00
70107;DHT22;57473;37.508;15.080;2023-02-03T08:55:29;13.30;68.20
70107;DHT22;57473;37.508;15.080;2023-02-03T08:57:57;13.40;67.70
70107;DHT22;57473;37.508;15.080;2023-02-03T09:00:24;13.60;67.00
70107;DHT22;57473;37.508;15.080;2023-02-03T09:02:52;13.70;65.60
70107;DHT22;57473;37.508;15.080;2023-02-03T09:05:20;13.70;65.30
70107;DHT22;57473;37.508;15.080;2023-02-03T09:07:47;13.80;65.20
70107;DHT22;57473;37.508;15.080;2023-02-03T09:10:15;14.00;63.60
70107;DHT22;57473;37.508;15.080;2023-02-03T09:12:42;14.00;63.30
70107;DHT22;57473;37.508;15.080;2023-02-03T09:15:10;14.10;63.30
70107;DHT22;57473;37.508;15.080;2023-02-03T09:17:37;14.20;62.70
70107;DHT22;57473;37.508;15.080;2023-02-03T09:20:05;14.30;62.60
70107;DHT22;57473;37.508;15.080;2023-02-03T09:22:32;14.40;61.90
70107;DHT22;57473;37.508;15.080;2023-02-03T09:25:00;14.30;61.60
70107;DHT22;57473;37.508;15.080;2023-02-03T09:27:27;14.30;62.20
70107;DHT22;57473;37.508;15.080;2023-02-03T09:29:55;14.40;61.50
70107;DHT22;57473;37.508;15.080;2023-02-03T09:32:24;14.40;59.90
70107;DHT22;57473;37.508;15.080;2023-02-03T09:34:51;14.50;59.50
70107;DHT22;57473;37.508;15.080;2023-02-03T09:37:19;14.70;56.90
70107;DHT22;57473;37.508;15.080;2023-02-03T09:39:46;14.90;56.20
70107;DHT22;57473;37.508;15.080;2023-02-03T09:45:10;14.90;55.10
70107;DHT22;57473;37.508;15.080;2023-02-03T09:47:41;15.00;53.30
70107;DHT22;57473;37.508;15.080;2023-02-03T09:50:30;15.10;52.40
70107;DHT22;57473;37.508;15.080;2023-02-03T09:52:58;15.20;52.90
70107;DHT22;57473;37.508;15.080;2023-02-03T09:55:38;15.30;52.30
70107;DHT22;57473;37.508;15.080;2023-02-03T09:58:11;15.40;51.20
70107;DHT22;57473;37.508;15.080;2023-02-03T10:09:00;15.70;51.70
70107;DHT22;57473;37.508;15.080;2023-02-03T10:20:03;16.00;47.30
70107;DHT22;57473;37.508;15.080;2023-02-03T10:22:37;16.00;47.40
70107;DHT22;57473;37.508;15.080;2023-02-03T10:28:22;16.10;48.60
70107;DHT22;57473;37.508;15.080;2023-02-03T10:31:00;15.90;49.50
70107;DHT22;57473;37.508;15.080;2023-02-03T10:33:32;16.00;48.90
70107;DHT22;57473;37.508;15.080;2023-02-03T10:36:19;16.00;48.40
70107;DHT22;57473;37.508;15.080;2023-02-03T10:41:15;16.00;47.90
70107;DHT22;57473;37.508;15.080;2023-02-03T10:43:43;16.20;47.70
70107;DHT22;57473;37.508;15.080;2023-02-03T10:46:15;16.20;47.20
70107;DHT22;57473;37.508;15.080;2023-02-03T10:48:43;16.20;47.00
70107;DHT22;57473;37.508;15.080;2023-02-03T10:51:25;16.20;47.10
70107;DHT22;57473;37.508;15.080;2023-02-03T10:53:53;16.30;46.40
70107;DHT22;57473;37.508;15.080;2023-02-03T10:56:39;16.30;46.90
70107;DHT22;57473;37.508;15.080;2023-02-03T10:59:28;16.40;46.80
70107;DHT22;57473;37.508;15.080;2023-02-03T11:01:56;16.50;46.60
70107;DHT22;57473;37.508;15.080;2023-02-03T11:04:27;16.60;46.10
70107;DHT22;57473;37.508;15.080;2023-02-03T11:07:04;16.70;46.20
70107;DHT22;57473;37.508;15.080;2023-02-03T11:09:40;16.90;45.80
70107;DHT22;57473;37.508;15.080;2023-02-03T11:12:34;17.10;45.20
70107;DHT22;57473;37.508;15.080;2023-02-03T11:15:04;17.30;45.20
70107;DHT22;57473;37.508;15.080;2023-02-03T11:17:34;17.60;45.70
70107;DHT22;57473;37.508;15.080;2023-02-03T11:20:13;18.00;44.70
70107;DHT22;57473;37.508;15.080;2023-02-03T11:22:42;18.40;44.10
70107;DHT22;57473;37.508;15.080;2023-02-03T11:25:26;18.90;42.50
70107;DHT22;57473;37.508;15.080;2023-02-03T11:27:55;18.90;42.30
70107;DHT22;57473;37.508;15.080;2023-02-03T11:30:29;19.00;41.90
70107;DHT22;57473;37.508;15.080;2023-02-03T11:33:00;19.20;41.40
70107;DHT22;57473;37.508;15.080;2023-02-03T11:35:29;19.20;41.10
70107;DHT22;57473;37.508;15.080;2023-02-03T11:37:59;19.30;41.30
70107;DHT22;57473;37.508;15.080;2023-02-03T11:40:33;19.40;40.80
70107;DHT22;57473;37.508;15.080;2023-02-03T11:43:14;19.40;40.80
70107;DHT22;57473;37.508;15.080;2023-02-03T11:45:47;19.80;40.10
70107;DHT22;57473;37.508;15.080;2023-02-03T11:48:27;20.20;39.70
70107;DHT22;57473;37.508;15.080;2023-02-03T11:51:17;20.20;39.90
70107;DHT22;57473;37.508;15.080;2023-02-03T11:56:51;20.60;39.40
70107;DHT22;57473;37.508;15.080;2023-02-03T12:11:16;21.70;38.00
70107;DHT22;57473;37.508;15.080;2023-02-03T12:21:44;21.40;41.00
70107;DHT22;57473;37.508;15.080;2023-02-03T12:29:44;20.90;42.90
70107;DHT22;57473;37.508;15.080;2023-02-03T12:32:26;21.00;43.20
70107;DHT22;57473;37.508;15.080;2023-02-03T12:35:21;20.80;43.80
70107;DHT22;57473;37.508;15.080;2023-02-03T12:37:57;20.70;44.60
70107;DHT22;57473;37.508;15.080;2023-02-03T12:43:00;21.50;43.70
70107;DHT22;57473;37.508;15.080;2023-02-03T12:45:31;21.10;44.40
70107;DHT22;57473;37.508;15.080;2023-02-03T12:48:05;21.20;44.60
70107;DHT22;57473;37.508;15.080;2023-02-03T12:50:50;20.40;46.50
70107;DHT22;57473;37.508;15.080;2023-02-03T12:53:24;19.60;47.90
70107;DHT22;57473;37.508;15.080;2023-02-03T12:56:04;18.80;50.00
70107;DHT22;57473;37.508;15.080;2023-02-03T12:58:38;18.90;50.10
70107;DHT22;57473;37.508;15.080;2023-02-03T13:01:21;19.20;50.20
70107;DHT22;57473;37.508;15.080;2023-02-03T13:04:09;20.10;48.50
70107;DHT22;57473;37.508;15.080;2023-02-03T13:07:01;20.70;47.80
70107;DHT22;57473;37.508;15.080;2023-02-03T13:12:24;20.60;48.30
70107;DHT22;57473;37.508;15.080;2023-02-03T13:15:03;20.70;48.20
70107;DHT22;57473;37.508;15.080;2023-02-03T13:20:23;19.80;50.00
70107;DHT22;57473;37.508;15.080;2023-02-03T13:22:51;18.80;52.40
70107;DHT22;57473;37.508;15.080;2023-02-03T13:25:23;18.60;53.20
70107;DHT22;57473;37.508;15.080;2023-02-03T13:28:09;18.40;53.90
70107;DHT22;57473;37.508;15.080;2023-02-03T13:30:52;18.00;55.00
70107;DHT22;57473;37.508;15.080;2023-02-03T13:34:05;17.80;55.70
70107;DHT22;57473;37.508;15.080;2023-02-03T13:39:46;17.40;55.80
70107;DHT22;57473;37.508;15.080;2023-02-03T13:42:52;17.10;57.10
70107;DHT22;57473;37.508;15.080;2023-02-03T13:45:37;17.00;58.20
70107;DHT22;57473;37.508;15.080;2023-02-03T13:48:08;16.90;59.30
70107;DHT22;57473;37.508;15.080;2023-02-03T13:50:36;16.70;60.80
70107;DHT22;57473;37.508;15.080;2023-02-03T13:53:19;16.50;61.80
70107;DHT22;57473;37.508;15.080;2023-02-03T13:56:07;16.50;61.30
70107;DHT22;57473;37.508;15.080;2023-02-03T13:58:37;16.50;60.70
70107;DHT22;57473;37.508;15.080;2023-02-03T14:01:28;16.20;61.30
70107;DHT22;57473;37.508;15.080;2023-02-03T14:03:56;16.20;61.70
70107;DHT22;57473;37.508;15.080;2023-02-03T14:09:34;16.30;61.00
70107;DHT22;57473;37.508;15.080;2023-02-03T14:12:34;16.40;60.80
70107;DHT22;57473;37.508;15.080;2023-02-03T14:15:20;16.30;64.10
70107;DHT22;57473;37.508;15.080;2023-02-03T14:17:53;16.20;65.60
70107;DHT22;57473;37.508;15.080;2023-02-03T14:22:58;16.30;65.70
70107;DHT22;57473;37.508;15.080;2023-02-03T14:25:42;16.20;64.40
70107;DHT22;57473;37.508;15.080;2023-02-03T14:28:14;16.10;63.90
70107;DHT22;57473;37.508;15.080;2023-02-03T14:31:13;16.00;63.90
70107;DHT22;57473;37.508;15.080;2023-02-03T14:33:54;16.00;62.60
70107;DHT22;57473;37.508;15.080;2023-02-03T14:38:55;15.90;64.40
70107;DHT22;57473;37.508;15.080;2023-02-03T14:47:09;15.90;66.40
70107;DHT22;57473;37.508;15.080;2023-02-03T14:52:37;15.90;66.40
70107;DHT22;57473;37.508;15.080;2023-02-03T14:55:33;16.00;66.60
70107;DHT22;57473;37.508;15.080;2023-02-03T14:58:28;16.00;66.00
70107;DHT22;57473;37.508;15.080;2023-02-03T15:00:59;15.90;66.50
70107;DHT22;57473;37.508;15.080;2023-02-03T15:03:26;15.70;67.20
70107;DHT22;57473;37.508;15.080;2023-02-03T15:06:01;15.60;66.90
70107;DHT22;57473;37.508;15.080;2023-02-03T15:08:40;15.60;67.30
70107;DHT22;57473;37.508;15.080;2023-02-03T15:11:31;15.60;66.90
70107;DHT22;57473;37.508;15.080;2023-02-03T15:14:25;15.50;66.30
70107;DHT22;57473;37.508;15.080;2023-02-03T15:17:10;15.50;64.70
70107;DHT22;57473;37.508;15.080;2023-02-03T15:19:40;15.50;64.10
70107;DHT22;57473;37.508;15.080;2023-02-03T15:22:24;15.50;64.10
70107;DHT22;57473;37.508;15.080;2023-02-03T15:25:03;15.50;64.00
70107;DHT22;57473;37.508;15.080;2023-02-03T15:27:37;15.50;63.80
70107;DHT22;57473;37.508;15.080;2023-02-03T15:30:26;15.40;64.20
70107;DHT22;57473;37.508;15.080;2023-02-03T15:33:15;15.40;64.00
70107;DHT22;57473;37.508;15.080;2023-02-03T15:35:45;15.40;64.20
70107;DHT22;57473;37.508;15.080;2023-02-03T15:38:24;15.30;64.70
70107;DHT22;57473;37.508;15.080;2023-02-03T15:40:55;15.30;65.00
70107;DHT22;57473;37.508;15.080;2023-02-03T15:43:40;15.30;66.70
70107;DHT22;57473;37.508;15.080;2023-02-03T15:46:17;15.30;65.00
70107;DHT22;57473;37.508;15.080;2023-02-03T15:57:05;15.10;66.80
70107;DHT22;57473;37.508;15.080;2023-02-03T15:59:41;15.10;67.30
70107;DHT22;57473;37.508;15.080;2023-02-03T16:02:21;15.00;66.70
70107;DHT22;57473;37.508;15.080;2023-02-03T16:04:53;14.90;66.80
70107;DHT22;57473;37.508;15.080;2023-02-03T16:07:26;14.90;66.40
70107;DHT22;57473;37.508;15.080;2023-02-03T16:09:56;14.80;65.90
70107;DHT22;57473;37.508;15.080;2023-02-03T16:12:25;14.80;65.80
70107;DHT22;57473;37.508;15.080;2023-02-03T16:14:54;14.70;66.50
70107;DHT22;57473;37.508;15.080;2023-02-03T16:27:42;14.40;70.10
70107;DHT22;57473;37.508;15.080;2023-02-03T16:35:56;14.20;70.20
70107;DHT22;57473;37.508;15.080;2023-02-03T16:38:49;14.20;70.20
70107;DHT22;57473;37.508;15.080;2023-02-03T16:41:36;14.10;70.90
70107;DHT22;57473;37.508;15.080;2023-02-03T16:44:22;14.00;71.80
70107;DHT22;57473;37.508;15.080;2023-02-03T16:47:24;13.90;73.00
70107;DHT22;57473;37.508;15.080;2023-02-03T16:50:19;13.80;75.30
70107;DHT22;57473;37.508;15.080;2023-02-03T16:53:14;13.80;75.30
70107;DHT22;57473;37.508;15.080;2023-02-03T16:55:43;13.70;76.00
70107;DHT22;57473;37.508;15.080;2023-02-03T16:58:11;13.60;76.80
70107;DHT22;57473;37.508;15.080;2023-02-03T17:00:39;13.60;76.50
70107;DHT22;57473;37.508;15.080;2023-02-03T17:03:13;13.60;76.60
70107;DHT22;57473;37.508;15.080;2023-02-03T17:05:42;13.50;78.50
70107;DHT22;57473;37.508;15.080;2023-02-03T17:08:11;13.50;78.80
70107;DHT22;57473;37.508;15.080;2023-02-03T17:10:40;13.50;79.30
70107;DHT22;57473;37.508;15.080;2023-02-03T17:13:10;13.40;80.40
70107;DHT22;57473;37.508;15.080;2023-02-03T17:15:40;13.40;81.20
70107;DHT22;57473;37.508;15.080;2023-02-03T17:18:08;13.40;81.40
70107;DHT22;57473;37.508;15.080;2023-02-03T17:20:36;13.40;81.60
70107;DHT22;57473;37.508;15.080;2023-02-03T17:23:04;13.30;81.40
70107;DHT22;57473;37.508;15.080;2023-02-03T17:25:32;13.30;81.80
70107;DHT22;57473;37.508;15.080;2023-02-03T17:28:03;13.20;82.10
70107;DHT22;57473;37.508;15.080;2023-02-03T17:30:31;13.10;82.70
70107;DHT22;57473;37.508;15.080;2023-02-03T17:33:04;13.10;83.30
70107;DHT22;57473;37.508;15.080;2023-02-03T17:35:43;13.10;83.60
70107;DHT22;57473;37.508;15.080;2023-02-03T17:38:12;13.00;84.10
70107;DHT22;57473;37.508;15.080;2023-02-03T17:40:41;13.00;84.50
70107;DHT22;57473;37.508;15.080;2023-02-03T17:43:27;12.90;85.30
70107;DHT22;57473;37.508;15.080;2023-02-03T17:46:25;12.90;86.30
70107;DHT22;57473;37.508;15.080;2023-02-03T17:49:10;12.90;87.00
70107;DHT22;57473;37.508;15.080;2023-02-03T17:51:54;12.90;87.40
70107;DHT22;57473;37.508;15.080;2023-02-03T17:54:40;12.80;87.60
70107;DHT22;57473;37.508;15.080;2023-02-03T17:57:07;12.90;87.60
70107;DHT22;57473;37.508;15.080;2023-02-03T17:59:35;12.90;87.60
70107;DHT22;57473;37.508;15.080;2023-02-03T18:02:04;12.80;87.60
70107;DHT22;57473;37.508;15.080;2023-02-03T18:04:31;12.70;88.20
70107;DHT22;57473;37.508;15.080;2023-02-03T18:06:59;12.70;88.20